Time;durP1;ratioP1;P1;durP2;ratioP2;P2;SDS_P1;SDS_P2;PMS_P1;PMS_P2;Temp;Humidity;BMP_temperature;BMP_pressure;BME280_temperature;BME280_humidity;BME280_pressure;Samples;Min_cycle;Max_cycle;Signal;HPM_P1;HPM_P2
2022/11/13 00:00:52;;;;;;;4.50;3.03;;;;;;;15.98;48.26;94472.41;5077888;28;20040;-84
2022/11/13 00:03:17;;;;;;;5.65;3.33;;;;;;;16.01;48.22;94471.47;5092442;28;20060;-83
2022/11/13 00:05:43;;;;;;;3.03;2.30;;;;;;;15.99;48.28;94462.25;5081790;28;20035;-83
2022/11/13 00:08:08;;;;;;;3.38;2.60;;;;;;;16.02;48.34;94464.06;5074781;28;20048;-83
2022/11/13 00:10:33;;;;;;;5.72;3.00;;;;;;;15.97;48.09;94462.72;5072570;28;20092;-84
2022/11/13 00:12:59;;;;;;;4.82;3.40;;;;;;;15.96;48.46;94455.00;5090389;28;20048;-83
2022/11/13 00:15:24;;;;;;;5.10;2.83;;;;;;;16.00;48.21;94456.34;5071564;28;20229;-83
2022/11/13 00:17:50;;;;;;;4.05;2.47;;;;;;;15.98;48.28;94453.34;5083478;28;20031;-83
2022/11/13 00:20:16;;;;;;;5.07;3.10;;;;;;;16.00;48.23;94450.13;5054662;28;20509;-83
2022/11/13 00:22:42;;;;;;;4.03;2.60;;;;;;;15.97;48.40;94446.38;5087209;28;20040;-83
2022/11/13 00:25:07;;;;;;;4.35;2.85;;;;;;;15.98;48.10;94442.41;5054645;28;20043;-83
2022/11/13 00:27:33;;;;;;;4.03;2.50;;;;;;;15.98;48.16;94441.66;5085417;28;20446;-83
2022/11/13 00:29:58;;;;;;;4.18;2.83;;;;;;;15.98;48.43;94425.31;5103148;28;20475;-83
2022/11/13 00:32:25;;;;;;;4.40;2.72;;;;;;;15.97;48.05;94430.00;5075470;28;20415;-83
2022/11/13 00:34:51;;;;;;;3.53;2.78;;;;;;;15.97;48.23;94424.56;5071356;28;20036;-83
2022/11/13 00:37:16;;;;;;;3.78;2.17;;;;;;;15.97;48.33;94421.81;5085343;28;20100;-84
2022/11/13 00:39:42;;;;;;;3.20;2.47;;;;;;;15.99;48.36;94418.63;5078933;28;20403;-84
2022/11/13 00:42:07;;;;;;;3.58;2.35;;;;;;;15.96;48.26;94412.13;5063498;28;20059;-83
2022/11/13 00:44:33;;;;;;;3.38;2.40;;;;;;;15.99;47.95;94410.44;5071360;28;20060;-84
2022/11/13 00:46:58;;;;;;;5.35;2.90;;;;;;;15.96;48.10;94406.69;5079714;28;20040;-83
2022/11/13 00:49:24;;;;;;;4.25;2.55;;;;;;;15.97;48.39;94404.72;5070754;28;20463;-83
2022/11/13 00:51:49;;;;;;;4.13;2.38;;;;;;;15.96;48.12;94403.97;5064593;28;20047;-83
2022/11/13 00:54:14;;;;;;;3.47;2.20;;;;;;;15.97;48.17;94402.75;5107840;28;20036;-84
2022/11/13 00:56:40;;;;;;;3.53;2.40;;;;;;;15.95;47.85;94388.81;5107846;28;20383;-83
2022/11/13 00:59:05;;;;;;;3.85;2.40;;;;;;;15.94;48.20;94390.03;5107984;28;20418;-83
2022/11/13 01:01:30;;;;;;;3.15;2.20;;;;;;;15.99;47.92;94391.34;5084653;28;20044;-84
2022/11/13 01:03:56;;;;;;;3.67;2.45;;;;;;;15.98;48.29;94387.88;5091258;28;20027;-83
2022/11/13 01:06:23;;;;;;;3.67;2.22;;;;;;;15.96;48.26;94387.59;5084954;28;22306;-84
2022/11/13 01:08:48;;;;;;;3.33;2.30;;;;;;;15.97;48.11;94386.38;5054090;28;20040;-84
2022/11/13 01:11:18;;;;;;;2.88;2.10;;;;;;;15.96;48.10;94390.31;5070382;28;20089;-83
2022/11/13 01:13:47;;;;;;;3.00;2.17;;;;;;;15.96;48.12;94386.84;5104651;28;20051;-83
2022/11/13 01:16:13;;;;;;;3.80;2.30;;;;;;;15.94;48.11;94387.31;5087440;28;20047;-83
2022/11/13 01:18:38;;;;;;;4.40;2.50;;;;;;;15.93;47.95;94382.31;5096621;28;20039;-84
2022/11/13 01:21:09;;;;;;;3.35;2.30;;;;;;;15.95;48.08;94385.34;5090286;28;20128;-84
2022/11/13 01:23:34;;;;;;;3.67;2.30;;;;;;;15.94;48.35;94384.59;5087899;28;20070;-84
2022/11/13 01:26:06;;;;;;;3.85;2.38;;;;;;;15.94;47.99;94381.84;5087678;28;20067;-83
2022/11/13 01:28:31;;;;;;;3.38;2.00;;;;;;;15.94;47.71;94381.84;5086603;28;20032;-83
2022/11/13 01:30:57;;;;;;;5.18;2.42;;;;;;;15.93;48.06;94369.44;5070416;28;20390;-83
2022/11/13 01:33:22;;;;;;;3.75;2.50;;;;;;;15.94;47.92;94365.50;5096875;28;20451;-83
2022/11/13 01:35:48;;;;;;;3.50;2.30;;;;;;;15.94;48.31;94367.47;5074219;28;20039;-83
2022/11/13 01:38:13;;;;;;;4.15;2.38;;;;;;;15.95;48.27;94360.78;5055435;28;20036;-83
2022/11/13 01:40:45;;;;;;;2.42;2.10;;;;;;;15.92;48.06;94365.22;5090261;28;20032;-83
2022/11/13 01:43:28;;;;;;;2.83;1.98;;;;;;;15.96;47.77;94354.13;5077083;28;20128;-83
2022/11/13 01:45:57;;;;;;;3.22;1.83;;;;;;;15.95;48.04;94352.63;5073657;28;20038;-83
2022/11/13 01:48:22;;;;;;;2.83;1.80;;;;;;;15.95;48.03;94358.06;5087166;28;21071;-83
2022/11/13 01:50:47;;;;;;;3.40;1.92;;;;;;;15.94;47.81;94346.41;5087259;28;20487;-83
2022/11/13 01:53:13;;;;;;;2.97;2.25;;;;;;;15.93;48.17;94347.63;5090947;28;20096;-82
2022/11/13 01:55:38;;;;;;;3.17;1.83;;;;;;;15.93;48.48;94346.88;5073913;28;20425;-83
2022/11/13 01:58:04;;;;;;;2.72;1.67;;;;;;;15.97;47.89;94334.56;5106585;28;20051;-83
2022/11/13 02:00:29;;;;;;;3.50;1.98;;;;;;;15.94;48.12;94337.47;5090323;28;20050;-83
2022/11/13 02:02:54;;;;;;;2.92;1.73;;;;;;;15.94;47.84;94329.28;5092551;28;20036;-83
2022/11/13 02:05:20;;;;;;;2.92;1.77;;;;;;;15.95;48.39;94328.06;5085489;28;20036;-84
2022/11/13 02:07:45;;;;;;;3.13;2.10;;;;;;;15.92;48.05;94326.28;5082936;28;20290;-83
2022/11/13 02:10:11;;;;;;;3.05;1.90;;;;;;;15.93;48.32;94325.81;5106770;27;20038;-83
2022/11/13 02:12:39;;;;;;;2.45;1.73;;;;;;;15.92;47.83;94318.09;5106583;28;20191;-82
2022/11/13 02:15:05;;;;;;;2.67;1.65;;;;;;;15.94;48.16;94316.41;5086261;28;20418;-84
2022/11/13 02:17:33;;;;;;;2.65;1.70;;;;;;;15.94;48.27;94312.94;5075336;28;20032;-82
2022/11/13 02:20:00;;;;;;;2.38;1.83;;;;;;;15.93;48.20;94311.44;5069905;28;20036;-84
2022/11/13 02:22:35;;;;;;;3.58;1.90;;;;;;;15.94;48.41;94305.50;5062616;28;20039;-83
2022/11/13 02:25:01;;;;;;;2.55;1.70;;;;;;;15.92;47.87;94304.47;5074143;28;20067;-83
2022/11/13 02:27:37;;;;;;;4.38;1.90;;;;;;;15.92;47.85;94301.75;5089302;28;20039;-83
2022/11/13 02:30:11;;;;;;;2.33;1.63;;;;;;;15.92;48.06;94293.56;5072092;28;20032;-83
2022/11/13 02:32:44;;;;;;;4.15;2.10;;;;;;;15.94;48.31;94289.16;5107979;28;20036;-83
2022/11/13 02:35:11;;;;;;;3.25;1.90;;;;;;;15.92;48.01;94293.56;5072041;28;20036;-82
2022/11/13 02:37:36;;;;;;;2.28;1.67;;;;;;;15.91;47.86;94298.25;5079970;28;20472;-84
2022/11/13 02:40:02;;;;;;;3.35;1.65;;;;;;;15.91;48.28;94297.50;5085380;28;20061;-83
2022/11/13 02:42:27;;;;;;;2.95;1.83;;;;;;;15.90;48.02;94285.84;5085121;28;20033;-83
2022/11/13 02:44:53;;;;;;;2.55;1.67;;;;;;;15.89;47.89;94292.53;5097447;28;20080;-83
2022/11/13 02:47:18;;;;;;;3.90;2.35;;;;;;;15.91;47.97;94287.34;5105534;28;20047;-84
2022/11/13 02:49:44;;;;;;;3.30;1.85;;;;;;;15.92;48.23;94288.09;5106634;28;20482;-83
2022/11/13 02:52:09;;;;;;;2.17;1.50;;;;;;;15.90;48.30;94274.94;5072025;28;20039;-83
2022/11/13 02:54:34;;;;;;;2.90;1.67;;;;;;;15.92;48.21;94274.47;5081985;28;20042;-84
2022/11/13 02:57:00;;;;;;;3.03;1.60;;;;;;;15.91;48.22;94271.00;5085349;28;20040;-83
2022/11/13 02:59:25;;;;;;;2.28;1.92;;;;;;;15.91;47.94;94271.00;5069169;28;20043;-83
2022/11/13 03:01:50;;;;;;;2.10;1.40;;;;;;;15.92;48.33;94279.94;5079104;28;20948;-83
2022/11/13 03:04:16;;;;;;;2.72;1.55;;;;;;;15.90;48.02;94269.50;5105952;28;20040;-83
2022/11/13 03:06:41;;;;;;;2.15;1.52;;;;;;;15.91;48.03;94275.69;5078424;28;20039;-83
2022/11/13 03:09:07;;;;;;;2.55;1.80;;;;;;;15.91;48.04;94272.97;5071813;28;20490;-83
2022/11/13 03:11:35;;;;;;;2.40;1.40;;;;;;;15.90;48.41;94268.75;5072534;28;20047;-83
2022/11/13 03:14:00;;;;;;;2.60;1.83;;;;;;;15.94;48.19;94266.56;5069668;28;20052;-83
2022/11/13 03:16:26;;;;;;;1.90;1.40;;;;;;;15.91;48.32;94267.53;5085150;28;20581;-84
2022/11/13 03:18:51;;;;;;;2.88;1.63;;;;;;;15.92;48.18;94266.31;5077667;28;20090;-83
2022/11/13 03:21:16;;;;;;;2.10;1.52;;;;;;;15.91;48.61;94268.28;5102678;28;20051;-83
2022/11/13 03:23:44;;;;;;;2.70;1.58;;;;;;;15.91;48.23;94281.16;5086112;28;20447;-84
2022/11/13 03:26:11;;;;;;;2.20;1.30;;;;;;;15.92;47.92;94266.31;5068802;28;20067;-84
2022/11/13 03:28:36;;;;;;;2.17;1.50;;;;;;;15.91;47.72;94267.53;5084860;28;20065;-83
2022/11/13 03:31:02;;;;;;;2.55;1.52;;;;;;;15.92;48.06;94263.56;5075504;28;20044;-84
2022/11/13 03:33:27;;;;;;;2.95;1.40;;;;;;;15.93;47.72;94273.25;5100039;28;20046;-83
2022/11/13 03:35:52;;;;;;;2.28;1.42;;;;;;;15.90;48.09;94274.94;5107709;28;20216;-83
2022/11/13 03:38:18;;;;;;;2.42;1.65;;;;;;;15.92;48.05;94264.31;5077006;28;20075;-83
2022/11/13 03:40:43;;;;;;;2.15;1.30;;;;;;;15.91;48.01;94264.78;5106130;28;20063;-83
2022/11/13 03:43:09;;;;;;;2.75;1.52;;;;;;;15.90;47.77;94255.09;5093361;28;20047;-83
2022/11/13 03:45:34;;;;;;;2.80;1.73;;;;;;;15.90;48.10;94258.59;5072527;28;20032;-83
2022/11/13 03:47:59;;;;;;;1.42;1.20;;;;;;;15.92;48.14;94266.31;5092114;28;20449;-84
2022/11/13 03:50:25;;;;;;;2.55;1.60;;;;;;;15.92;48.19;94261.59;5092575;28;20350;-84
2022/11/13 03:52:51;;;;;;;1.58;1.27;;;;;;;15.89;48.16;94265.25;5075185;28;20043;-83
2022/11/13 03:55:16;;;;;;;1.90;1.50;;;;;;;15.91;47.79;94260.09;5077237;28;20055;-83
2022/11/13 03:57:42;;;;;;;2.08;1.63;;;;;;;15.88;48.31;94255.59;5056551;28;20051;-83
2022/11/13 04:00:08;;;;;;;1.98;1.38;;;;;;;15.90;47.94;94252.38;5071773;28;20032;-84
2022/11/13 04:02:33;;;;;;;1.55;1.20;;;;;;;15.90;47.62;94264.03;5077686;28;20115;-83
2022/11/13 04:04:59;;;;;;;2.63;1.33;;;;;;;15.89;47.82;94259.81;5092892;28;20039;-83
2022/11/13 04:07:24;;;;;;;2.75;1.33;;;;;;;15.88;48.14;94257.56;5088047;28;20070;-83
2022/11/13 04:09:50;;;;;;;3.33;1.52;;;;;;;15.88;47.98;94255.59;5071840;28;20097;-83
2022/11/13 04:12:15;;;;;;;2.22;1.20;;;;;;;15.90;48.02;94246.94;5071673;28;20407;-83
2022/11/13 04:14:40;;;;;;;1.98;1.38;;;;;;;15.89;48.44;94250.88;5055623;28;20032;-83
2022/11/13 04:17:07;;;;;;;1.70;1.20;;;;;;;15.89;48.36;94248.91;5071770;28;20044;-84
2022/11/13 04:19:32;;;;;;;1.95;1.20;;;;;;;15.87;48.36;94245.16;5075449;28;20085;-83
2022/11/13 04:21:58;;;;;;;2.20;1.40;;;;;;;15.87;48.14;94229.53;5072192;28;20417;-83
2022/11/13 04:24:23;;;;;;;1.75;1.42;;;;;;;15.88;47.96;94233.78;5049518;28;20048;-83
2022/11/13 04:26:48;;;;;;;2.58;1.38;;;;;;;15.89;48.10;94227.09;5050019;28;20048;-83
2022/11/13 04:29:14;;;;;;;2.30;1.17;;;;;;;15.87;47.79;94226.81;5047469;28;20043;-83
2022/11/13 04:31:39;;;;;;;1.63;1.10;;;;;;;15.88;48.02;94214.69;5033288;28;20037;-83
2022/11/13 04:34:04;;;;;;;1.73;1.17;;;;;;;15.89;47.71;94215.44;5066725;28;20052;-83
2022/11/13 04:36:30;;;;;;;1.63;0.98;;;;;;;15.87;48.11;94218.63;5049667;28;20040;-83
2022/11/13 04:38:55;;;;;;;2.05;1.13;;;;;;;15.89;47.75;94215.44;5044964;28;20380;-83
2022/11/13 04:44:05;;;;;;;1.75;1.20;;;;;;;15.89;47.48;94205.28;5050282;28;20090;-83
2022/11/13 04:46:30;;;;;;;1.33;1.02;;;;;;;15.85;48.29;94204.72;5066195;28;20053;-83
2022/11/13 04:48:55;;;;;;;1.35;0.90;;;;;;;15.87;47.91;94198.81;5044293;28;20887;-83
2022/11/13 04:51:21;;;;;;;1.50;0.98;;;;;;;15.87;48.05;94201.53;5066301;28;20052;-83
2022/11/13 04:53:46;;;;;;;1.58;1.02;;;;;;;15.88;47.63;94190.16;5050013;28;20136;-83
2022/11/13 04:56:12;;;;;;;2.85;1.40;;;;;;;15.87;47.84;94188.66;5083597;28;20040;-83
2022/11/13 04:58:37;;;;;;;1.00;0.90;;;;;;;15.86;48.33;94186.38;5098689;28;20050;-83
2022/11/13 05:01:03;;;;;;;1.83;1.33;;;;;;;15.85;48.23;94188.38;5090876;28;20047;-83
2022/11/13 05:03:28;;;;;;;1.55;1.00;;;;;;;15.85;48.09;94196.53;5108151;28;20108;-84
2022/11/13 05:06:03;;;;;;;1.58;1.20;;;;;;;15.86;47.92;94195.31;5108186;28;20028;-83
2022/11/13 05:08:28;;;;;;;2.17;1.05;;;;;;;15.89;47.94;94188.91;5066959;28;20421;-83
2022/11/13 05:10:54;;;;;;;1.27;0.93;;;;;;;15.85;48.41;94188.38;5091016;28;20035;-83
2022/11/13 05:13:19;;;;;;;1.35;0.70;;;;;;;15.84;47.91;94186.13;5090541;28;20048;-82
2022/11/13 05:15:45;;;;;;;1.50;1.00;;;;;;;15.85;48.25;94182.16;5091374;28;20039;-83
2022/11/13 05:18:10;;;;;;;1.65;1.10;;;;;;;15.83;47.88;94176.44;5068648;28;20036;-83
2022/11/13 05:20:35;;;;;;;1.60;1.00;;;;;;;15.84;48.11;94173.22;5070582;28;20602;-83
2022/11/13 05:23:01;;;;;;;1.50;1.05;;;;;;;15.82;47.91;94162.06;5075276;28;20297;-84
2022/11/13 05:25:26;;;;;;;1.55;1.25;;;;;;;15.85;48.04;94160.34;5107936;28;20299;-83
2022/11/13 05:27:52;;;;;;;1.88;1.15;;;;;;;15.84;47.80;94154.16;5087517;28;20093;-84
2022/11/13 05:30:17;;;;;;;1.23;0.90;;;;;;;15.86;48.21;94148.97;5087760;28;20086;-83
2022/11/13 05:32:42;;;;;;;1.58;1.15;;;;;;;15.87;48.12;94149.72;5089035;28;20417;-84
2022/11/13 05:35:08;;;;;;;1.50;1.10;;;;;;;15.83;48.13;94149.16;5070060;28;20085;-84
2022/11/13 05:37:33;;;;;;;1.00;0.90;;;;;;;15.84;47.99;94137.03;5070464;28;20208;-83
2022/11/13 05:39:59;;;;;;;1.35;0.93;;;;;;;15.86;48.03;94159.13;5103350;28;20027;-83
2022/11/13 05:42:24;;;;;;;1.33;1.00;;;;;;;15.86;48.03;94142.78;5106339;28;20032;-83
2022/11/13 05:44:49;;;;;;;1.30;1.02;;;;;;;15.84;48.07;94139.75;5070271;28;20036;-83
2022/11/13 05:47:15;;;;;;;0.90;0.80;;;;;;;15.83;48.33;94130.09;5086534;28;20044;-83
2022/11/13 05:49:40;;;;;;;1.48;1.20;;;;;;;15.83;47.82;94132.81;5102246;28;20044;-84
2022/11/13 05:52:06;;;;;;;3.83;1.25;;;;;;;15.85;47.90;94133.09;5106715;28;20082;-83
2022/11/13 05:54:31;;;;;;;1.00;0.90;;;;;;;15.83;48.12;94124.63;5071340;28;20043;-83
2022/11/13 05:56:56;;;;;;;1.70;1.20;;;;;;;15.84;48.05;94123.41;5087175;28;20240;-83
2022/11/13 05:59:22;;;;;;;1.25;0.90;;;;;;;15.84;47.99;94118.72;5086956;28;20051;-83
2022/11/13 06:01:47;;;;;;;0.93;0.82;;;;;;;15.83;48.09;94113.72;5053363;28;20441;-83
2022/11/13 06:04:12;;;;;;;1.50;1.10;;;;;;;15.82;48.13;94109.50;5082018;28;20044;-83
2022/11/13 06:06:38;;;;;;;1.80;1.23;;;;;;;15.84;47.90;94109.78;5070667;28;20038;-83
2022/11/13 06:09:04;;;;;;;1.50;1.10;;;;;;;15.83;47.98;94092.66;5062785;28;20394;-83
2022/11/13 06:11:29;;;;;;;1.25;0.90;;;;;;;15.82;48.01;94091.16;5090131;28;20484;-84
2022/11/13 06:13:55;;;;;;;1.65;1.15;;;;;;;15.82;48.26;94106.78;5089835;28;20043;-83
2022/11/13 06:16:22;;;;;;;1.67;0.98;;;;;;;15.81;48.12;94106.03;5072940;28;20036;-83
2022/11/13 06:18:48;;;;;;;2.03;1.20;;;;;;;15.82;48.26;94110.25;5082211;28;20300;-83
2022/11/13 06:21:16;;;;;;;1.38;0.85;;;;;;;15.81;48.10;94110.72;5089284;28;20047;-83
2022/11/13 06:23:41;;;;;;;1.02;0.80;;;;;;;15.82;47.89;94112.22;5073103;28;20410;-83
2022/11/13 06:26:10;;;;;;;0.80;0.80;;;;;;;15.84;47.90;94112.50;5090207;28;20038;-83
2022/11/13 06:28:36;;;;;;;1.58;1.10;;;;;;;15.81;48.18;94111.47;5072859;28;20186;-83
2022/11/13 06:31:06;;;;;;;1.20;1.05;;;;;;;15.81;48.26;94108.75;5072261;28;20065;-83
2022/11/13 06:33:31;;;;;;;1.55;1.00;;;;;;;15.85;47.96;94111.28;5084256;28;20040;-83
2022/11/13 06:35:57;;;;;;;1.38;1.02;;;;;;;15.84;48.05;94113.25;5069918;28;20682;-83
2022/11/13 06:38:22;;;;;;;0.93;0.68;;;;;;;15.82;48.06;94109.50;5072651;28;20040;-84
2022/11/13 06:40:48;;;;;;;1.30;0.90;;;;;;;15.83;47.91;94119.19;5086083;28;20036;-84
2022/11/13 06:43:13;;;;;;;1.50;0.98;;;;;;;15.85;47.93;94127.63;5073268;28;20046;-83
2022/11/13 06:45:38;;;;;;;2.55;1.00;;;;;;;15.83;47.80;94136.28;5073018;28;20035;-84
2022/11/13 06:48:04;;;;;;;1.60;0.98;;;;;;;15.83;47.67;94133.56;5089578;28;20397;-83
2022/11/13 06:50:29;;;;;;;1.10;0.88;;;;;;;15.84;48.19;94120.69;5076144;28;20036;-83
2022/11/13 06:52:55;;;;;;;0.98;0.68;;;;;;;15.84;47.97;94121.44;5068810;28;20537;-83
2022/11/13 06:55:20;;;;;;;1.15;0.93;;;;;;;15.84;48.05;94121.44;5099496;28;20093;-83
2022/11/13 06:57:46;;;;;;;1.20;0.70;;;;;;;15.85;47.98;94124.91;5086453;28;20029;-84
2022/11/13 07:00:11;;;;;;;1.30;1.00;;;;;;;15.87;48.17;94123.22;5082775;28;20372;-84
2022/11/13 07:02:37;;;;;;;1.40;0.70;;;;;;;15.88;47.97;94124.72;5069112;28;20039;-83
2022/11/13 07:05:02;;;;;;;1.00;0.70;;;;;;;15.89;47.81;94128.94;5055966;28;20109;-84
2022/11/13 07:07:28;;;;;;;1.02;0.90;;;;;;;15.88;48.13;94123.97;5071585;28;20403;-84
2022/11/13 07:09:53;;;;;;;1.35;0.75;;;;;;;15.90;48.13;94130.44;5088111;28;20096;-83
2022/11/13 07:12:18;;;;;;;1.13;0.88;;;;;;;15.91;47.83;94112.09;5088762;28;20050;-83
2022/11/13 07:14:44;;;;;;;1.10;1.00;;;;;;;15.95;47.85;94118.84;5105998;28;20031;-84
2022/11/13 07:17:09;;;;;;;1.25;0.82;;;;;;;15.94;47.72;94116.59;5089363;28;20039;-83
2022/11/13 07:19:35;;;;;;;1.35;1.25;;;;;;;15.95;47.66;94121.59;5056483;28;20121;-84
2022/11/13 07:22:00;;;;;;;1.25;0.80;;;;;;;15.98;47.42;94108.97;5054233;28;20502;-84
2022/11/13 07:24:25;;;;;;;1.35;0.95;;;;;;;15.98;47.82;94114.44;5050857;28;20051;-84
2022/11/13 07:26:51;;;;;;;1.10;0.80;;;;;;;15.97;47.61;94110.19;5034837;28;20048;-84
2022/11/13 07:29:16;;;;;;;1.30;0.80;;;;;;;15.98;47.35;94112.47;5041770;28;20044;-83
2022/11/13 07:31:42;;;;;;;1.10;0.85;;;;;;;16.01;47.55;94118.94;5054049;28;20450;-83
2022/11/13 07:34:07;;;;;;;1.02;0.80;;;;;;;16.00;48.00;94118.19;5070564;28;20108;-83
2022/11/13 07:36:32;;;;;;;0.82;0.77;;;;;;;15.98;47.75;94108.97;5088199;28;20036;-83
2022/11/13 07:38:58;;;;;;;0.70;0.70;;;;;;;16.03;47.68;94128.13;5084149;28;20059;-83
2022/11/13 07:41:24;;;;;;;1.67;0.90;;;;;;;16.03;47.50;94119.94;5070278;28;20101;-84
2022/11/13 07:43:50;;;;;;;0.82;0.75;;;;;;;16.07;47.62;94131.38;5070634;28;20502;-83
2022/11/13 07:46:15;;;;;;;1.02;0.80;;;;;;;16.06;47.56;94129.13;5087802;28;20055;-83
2022/11/13 07:48:40;;;;;;;0.93;0.68;;;;;;;16.04;47.63;94126.13;5087636;28;20502;-83
2022/11/13 07:51:06;;;;;;;2.08;0.80;;;;;;;16.07;47.72;94128.66;5082613;28;20040;-83
2022/11/13 07:53:31;;;;;;;0.82;0.70;;;;;;;16.07;47.88;94125.19;5090180;28;20403;-83
2022/11/13 07:56:00;;;;;;;0.88;0.70;;;;;;;16.06;47.91;94126.41;5079942;28;20039;-84
2022/11/13 07:58:25;;;;;;;1.52;0.80;;;;;;;16.07;47.65;94128.66;5092116;28;20137;-83
2022/11/13 08:00:51;;;;;;;0.85;0.70;;;;;;;16.10;47.47;94132.41;5075710;28;20040;-83
2022/11/13 08:03:16;;;;;;;1.00;0.80;;;;;;;16.08;48.09;94124.72;5088290;28;20044;-83
2022/11/13 08:05:42;;;;;;;0.68;0.50;;;;;;;16.07;47.92;94125.94;5090589;28;20043;-83
2022/11/13 08:08:09;;;;;;;0.80;0.70;;;;;;;16.10;47.93;94130.44;5108381;28;20062;-84
2022/11/13 08:10:35;;;;;;;1.33;0.88;;;;;;;16.10;48.03;94124.22;5058335;28;20040;-83
2022/11/13 08:13:02;;;;;;;0.75;0.50;;;;;;;16.13;47.91;94127.97;5055064;28;20097;-83
2022/11/13 08:15:28;;;;;;;1.23;0.75;;;;;;;16.13;47.78;94127.97;5055185;28;20101;-83
2022/11/13 08:17:55;;;;;;;0.80;0.60;;;;;;;16.14;47.51;94124.78;5074762;28;20123;-84
2022/11/13 08:20:20;;;;;;;0.98;0.80;;;;;;;16.15;47.99;94125.53;5090783;28;20046;-84
2022/11/13 08:22:46;;;;;;;0.85;0.70;;;;;;;16.17;47.97;94123.81;5096540;28;20036;-84
2022/11/13 08:25:11;;;;;;;0.77;0.70;;;;;;;16.18;47.92;94122.59;5102858;28;20588;-83
2022/11/13 08:27:37;;;;;;;0.50;0.40;;;;;;;16.18;47.59;94127.31;5092108;28;20039;-83
2022/11/13 08:30:03;;;;;;;0.63;0.57;;;;;;;16.19;47.50;94124.09;5074797;28;20084;-85
2022/11/13 08:32:28;;;;;;;0.85;0.57;;;;;;;16.20;47.64;94133.03;5072949;28;20092;-83
2022/11/13 08:34:53;;;;;;;1.35;0.55;;;;;;;16.21;47.55;94127.09;5109817;28;20418;-83
2022/11/13 08:37:19;;;;;;;1.10;0.70;;;;;;;16.20;48.08;94124.84;5109879;28;20050;-84
2022/11/13 08:39:44;;;;;;;1.05;0.90;;;;;;;16.20;47.53;94127.56;5061271;28;20043;-83
2022/11/13 08:42:10;;;;;;;1.20;0.75;;;;;;;16.21;47.46;94129.81;5070730;28;20067;-83
2022/11/13 08:44:35;;;;;;;0.70;0.70;;;;;;;16.21;47.69;94126.34;5074181;28;20040;-83
2022/11/13 08:47:00;;;;;;;0.98;0.73;;;;;;;16.21;47.42;94131.81;5054576;28;20040;-84
2022/11/13 08:49:26;;;;;;;0.55;0.50;;;;;;;16.22;47.53;94141.50;5056005;28;20048;-83
2022/11/13 08:51:51;;;;;;;0.60;0.45;;;;;;;16.21;47.76;94134.53;5071755;28;20032;-83
2022/11/13 08:54:17;;;;;;;0.90;0.50;;;;;;;16.22;47.53;94131.34;5069238;28;20063;-83
2022/11/13 08:56:42;;;;;;;0.43;0.40;;;;;;;16.21;47.88;94129.81;5077887;28;20084;-83
2022/11/13 08:59:08;;;;;;;0.90;0.60;;;;;;;16.22;47.74;94133.31;5087350;28;20044;-84
2022/11/13 09:01:34;;;;;;;1.63;0.70;;;;;;;16.23;47.90;94137.53;5071276;28;20040;-83
2022/11/13 09:03:59;;;;;;;1.02;0.63;;;;;;;16.24;47.83;94134.31;5088509;28;20103;-83
2022/11/13 09:06:24;;;;;;;1.33;0.80;;;;;;;16.24;47.12;94133.59;5090879;28;20050;-82
2022/11/13 09:08:50;;;;;;;0.70;0.70;;;;;;;16.23;47.72;94130.09;5063248;28;20071;-84
2022/11/13 09:11:15;;;;;;;0.60;0.60;;;;;;;16.23;47.70;94140.25;5107779;28;20039;-84
2022/11/13 09:13:41;;;;;;;1.00;0.73;;;;;;;16.25;47.66;94129.59;5070925;28;20032;-83
2022/11/13 09:16:06;;;;;;;0.85;0.52;;;;;;;16.22;47.48;94131.34;5071358;27;20051;-84
2022/11/13 09:18:31;;;;;;;0.70;0.70;;;;;;;16.23;47.76;94132.84;5083164;28;20039;-84
2022/11/13 09:20:59;;;;;;;1.48;0.93;;;;;;;16.25;47.63;94135.06;5074594;28;20052;-85
2022/11/13 09:23:25;;;;;;;0.60;0.60;;;;;;;16.25;47.54;94129.59;5086729;28;20564;-83
2022/11/13 09:25:50;;;;;;;0.82;0.65;;;;;;;16.25;47.61;94127.63;5102856;28;20043;-83
2022/11/13 09:28:17;;;;;;;0.60;0.50;;;;;;;16.25;47.86;94130.34;5090321;28;20044;-83
2022/11/13 09:30:42;;;;;;;0.70;0.55;;;;;;;16.24;47.58;94122.66;5090260;28;20059;-83
2022/11/13 09:33:08;;;;;;;0.98;0.63;;;;;;;16.23;47.61;94121.91;5103603;28;20497;-83
2022/11/13 09:35:34;;;;;;;0.90;0.68;;;;;;;16.24;47.75;94111.75;5053917;28;20051;-83
2022/11/13 09:38:06;;;;;;;1.00;0.73;;;;;;;16.24;47.57;94106.31;5087652;28;20043;-84
2022/11/13 09:40:56;;;;;;;1.13;0.70;;;;;;;16.23;47.95;94113.75;5070112;28;20130;-83
2022/11/13 09:43:28;;;;;;;1.02;0.80;;;;;;;16.24;47.76;94112.47;5055506;28;20089;-84
2022/11/13 09:46:03;;;;;;;1.00;0.70;;;;;;;16.25;47.93;94113.22;5104642;28;20035;-84
2022/11/13 09:48:31;;;;;;;0.80;0.57;;;;;;;16.25;48.00;94113.97;5090142;28;20433;-83
2022/11/13 09:50:59;;;;;;;0.50;0.50;;;;;;;16.25;47.68;94119.44;5094357;28;20029;-84
2022/11/13 09:53:26;;;;;;;0.70;0.60;;;;;;;16.25;47.81;94105.03;5070000;28;20043;-83
2022/11/13 09:56:25;;;;;;;0.88;0.60;;;;;;;16.24;47.51;94095.38;5100487;28;20043;-84
2022/11/13 09:58:56;;;;;;;1.58;0.75;;;;;;;16.25;47.70;94100.34;5107159;28;20072;-84
2022/11/13 10:01:33;;;;;;;0.98;0.68;;;;;;;16.26;47.93;94103.81;5072675;28;20048;-84
2022/11/13 10:04:00;;;;;;;0.73;0.63;;;;;;;16.26;47.66;94098.34;5058427;28;20024;-83
2022/11/13 10:06:47;;;;;;;0.40;0.40;;;;;;;16.24;47.71;94090.66;5089593;27;20126;-84
2022/11/13 10:09:28;;;;;;;0.93;0.60;;;;;;;16.25;47.87;94078.50;5080598;28;20067;-83
2022/11/13 10:12:06;;;;;;;0.60;0.60;;;;;;;16.24;48.01;94085.19;5070968;28;20047;-84
2022/11/13 10:14:38;;;;;;;0.40;0.40;;;;;;;16.25;47.67;94091.41;5057123;28;20473;-84
2022/11/13 10:17:18;;;;;;;0.63;0.50;;;;;;;16.25;47.82;94083.22;5072737;28;20036;-83
2022/11/13 10:19:57;;;;;;;0.65;0.57;;;;;;;16.24;48.00;94085.19;5073922;28;20032;-84
2022/11/13 10:22:34;;;;;;;0.98;0.60;;;;;;;16.25;47.74;94072.31;5105822;28;20460;-84
2022/11/13 10:25:14;;;;;;;1.55;0.80;;;;;;;16.24;47.69;94070.84;5103266;28;20115;-83
2022/11/13 10:27:39;;;;;;;0.52;0.52;;;;;;;16.23;47.89;94061.91;5070335;28;20619;-83
2022/11/13 10:30:12;;;;;;;0.82;0.52;;;;;;;16.23;47.63;94061.91;5069235;28;20130;-84
2022/11/13 10:32:38;;;;;;;0.50;0.50;;;;;;;16.25;47.57;94056.69;5072011;28;20076;-84
2022/11/13 10:35:03;;;;;;;0.47;0.45;;;;;;;16.25;47.66;94051.22;5088977;28;20040;-83
2022/11/13 10:37:47;;;;;;;1.48;0.70;;;;;;;16.24;47.62;94055.19;5087931;28;20039;-84
2022/11/13 10:40:23;;;;;;;0.68;0.45;;;;;;;16.23;47.99;94056.44;5104042;28;20088;-84
2022/11/13 10:42:48;;;;;;;0.73;0.50;;;;;;;16.25;47.75;94045.78;5089831;28;20036;-83
2022/11/13 10:45:15;;;;;;;0.90;0.57;;;;;;;16.25;47.75;94053.22;5079673;28;20040;-83
2022/11/13 10:47:48;;;;;;;0.90;0.55;;;;;;;16.23;47.75;94051.00;5088257;28;20059;-85
2022/11/13 10:50:20;;;;;;;0.60;0.50;;;;;;;16.25;47.71;94045.03;5057814;28;20035;-83
2022/11/13 10:52:47;;;;;;;0.60;0.60;;;;;;;16.24;47.78;94047.00;5089624;28;20028;-84
2022/11/13 10:55:15;;;;;;;0.50;0.50;;;;;;;16.25;47.34;94043.06;5069234;28;20032;-84
2022/11/13 10:57:40;;;;;;;1.25;0.60;;;;;;;16.25;47.57;94045.03;5091717;28;20054;-82
2022/11/13 11:00:31;;;;;;;0.50;0.50;;;;;;;16.23;47.46;94040.09;5077067;28;20428;-83
2022/11/13 11:02:56;;;;;;;;;;;;;;;16.26;47.64;94046.53;5112855;27;20036;-83
2022/11/13 11:05:23;;;;;;;0.50;0.50;;;;;;;16.25;47.88;94032.13;5109655;28;19927;-84
2022/11/13 11:07:48;;;;;;;0.50;0.50;;;;;;;16.25;47.47;94040.31;5076971;28;20043;-83
2022/11/13 11:10:20;;;;;;;1.00;0.70;;;;;;;16.25;47.87;94032.13;5071663;28;20036;-85
2022/11/13 11:12:54;;;;;;;0.45;0.43;;;;;;;16.23;47.65;94034.63;5089701;28;20067;-83
2022/11/13 11:15:38;;;;;;;0.77;0.50;;;;;;;16.23;47.58;94036.59;5077209;28;20085;-83
2022/11/13 11:18:08;;;;;;;0.65;0.57;;;;;;;16.24;47.34;94027.91;5093275;28;20116;-84
2022/11/13 11:20:40;;;;;;;0.68;0.52;;;;;;;16.23;47.46;94021.00;5075333;28;20339;-83
2022/11/13 11:23:23;;;;;;;0.90;0.50;;;;;;;16.22;47.39;94011.31;5089367;28;20039;-83
2022/11/13 11:26:08;;;;;;;0.63;0.52;;;;;;;16.23;47.46;94010.06;5082605;28;20104;-83
2022/11/13 11:28:46;;;;;;;0.50;0.50;;;;;;;16.25;47.61;94006.84;5093925;28;20035;-84
2022/11/13 11:31:30;;;;;;;0.55;0.50;;;;;;;16.22;47.42;94005.84;5082804;28;20498;-84
2022/11/13 11:34:19;;;;;;;0.70;0.50;;;;;;;16.22;47.54;94007.81;5090985;28;20040;-85
2022/11/13 11:37:03;;;;;;;0.55;0.52;;;;;;;16.23;47.39;94001.88;5084329;28;20035;-84